Time;durP1;ratioP1;P1;durP2;ratioP2;P2;SDS_P1;SDS_P2;PMS_P1;PMS_P2;Temp;Humidity;BMP_temperature;BMP_pressure;BME280_temperature;BME280_humidity;BME280_pressure;Samples;Min_cycle;Max_cycle;Signal;HPM_P1;HPM_P2
2022/09/02 00:00:47;;;;;;;1.97;1.97;;;24.30;61.30;;;;;;5008571;28;43424;-72
2022/09/02 00:03:15;;;;;;;1.60;1.60;;;24.40;61.00;;;;;;5008533;28;43397;-72
2022/09/02 00:05:44;;;;;;;1.83;1.83;;;24.50;60.70;;;;;;5008790;28;43417;-73
2022/09/02 00:08:12;;;;;;;1.70;1.70;;;24.60;60.30;;;;;;5002554;28;45964;-71
2022/09/02 00:10:42;;;;;;;2.03;2.03;;;24.70;60.20;;;;;;5008941;28;43387;-73
2022/09/02 00:13:12;;;;;;;1.90;1.90;;;24.60;60.80;;;;;;5008066;28;43538;-71
2022/09/02 00:15:40;;;;;;;1.93;1.93;;;24.60;60.20;;;;;;5009050;28;43351;-72
2022/09/02 00:18:11;;;;;;;1.73;1.73;;;24.50;60.60;;;;;;5006390;28;45978;-73
2022/09/02 00:20:44;;;;;;;1.57;1.57;;;24.50;60.80;;;;;;5008743;28;43341;-73
2022/09/02 00:23:12;;;;;;;1.73;1.73;;;24.40;60.60;;;;;;5008519;28;43414;-72
2022/09/02 00:25:43;;;;;;;1.80;1.80;;;24.40;60.90;;;;;;5008428;28;43442;-71
2022/09/02 00:28:11;;;;;;;1.73;1.73;;;24.30;61.20;;;;;;5007734;28;43741;-72
2022/09/02 00:30:39;;;;;;;1.70;1.70;;;24.30;61.10;;;;;;4990368;28;44746;-72
2022/09/02 00:33:07;;;;;;;1.90;1.90;;;24.30;60.90;;;;;;5008366;28;43345;-72
2022/09/02 00:35:35;;;;;;;1.80;1.80;;;24.30;61.00;;;;;;5008536;28;43418;-73
2022/09/02 00:38:04;;;;;;;1.80;1.80;;;24.20;61.60;;;;;;5007973;28;43758;-73
2022/09/02 00:40:32;;;;;;;1.90;1.90;;;24.30;61.40;;;;;;5008018;28;43338;-72
2022/09/02 00:43:01;;;;;;;1.73;1.70;;;24.40;61.00;;;;;;5008623;28;43378;-73
2022/09/02 00:45:30;;;;;;;1.90;1.90;;;24.50;60.40;;;;;;5008914;28;43335;-72
2022/09/02 00:47:58;;;;;;;1.90;1.90;;;24.60;60.40;;;;;;5000380;28;45713;-74
2022/09/02 00:50:28;;;;;;;1.70;1.70;;;24.60;60.40;;;;;;5008003;28;43808;-73
2022/09/02 00:52:59;;;;;;;1.80;1.80;;;24.60;60.30;;;;;;5007902;28;43384;-74
2022/09/02 00:55:29;;;;;;;1.70;1.70;;;24.50;60.60;;;;;;5006554;28;44046;-72
2022/09/02 00:57:59;;;;;;;1.90;1.90;;;24.40;60.90;;;;;;5008302;28;44314;-73
2022/09/02 01:00:30;;;;;;;1.70;1.70;;;24.40;60.90;;;;;;5005666;28;44560;-71
2022/09/02 01:03:03;;;;;;;1.80;1.80;;;24.40;60.90;;;;;;5006391;28;43415;-72
2022/09/02 01:05:33;;;;;;;1.70;1.70;;;24.30;61.20;;;;;;5008437;28;43394;-72
2022/09/02 01:08:01;;;;;;;1.60;1.60;;;24.30;61.30;;;;;;4988974;28;45639;-73
2022/09/02 01:10:31;;;;;;;1.70;1.70;;;24.30;61.20;;;;;;5008407;28;43361;-72
2022/09/02 01:13:00;;;;;;;1.57;1.57;;;24.30;61.10;;;;;;5001040;28;43470;-71
2022/09/02 01:15:30;;;;;;;1.73;1.73;;;24.20;61.40;;;;;;5002135;28;43441;-71
2022/09/02 01:17:58;;;;;;;1.87;1.87;;;24.20;61.70;;;;;;5001654;28;46089;-73
2022/09/02 01:20:26;;;;;;;1.90;1.90;;;24.30;61.50;;;;;;5007571;28;43438;-72
2022/09/02 01:22:57;;;;;;;1.70;1.70;;;24.40;61.00;;;;;;5006398;28;43392;-71
2022/09/02 01:25:27;;;;;;;1.70;1.70;;;24.50;60.80;;;;;;5007759;28;43329;-71
2022/09/02 01:27:59;;;;;;;1.90;1.90;;;24.50;60.80;;;;;;5005809;28;45802;-71
2022/09/02 01:30:27;;;;;;;1.77;1.70;;;24.50;60.60;;;;;;5006164;28;44920;-71
2022/09/02 01:32:55;;;;;;;1.80;1.80;;;24.40;60.60;;;;;;4989773;28;43404;-73
2022/09/02 01:35:23;;;;;;;1.40;1.40;;;24.40;61.20;;;;;;5007600;28;43445;-71
2022/09/02 01:37:54;;;;;;;1.80;1.80;;;24.30;61.20;;;;;;4997466;28;46189;-72
2022/09/02 01:40:25;;;;;;;1.70;1.70;;;24.30;61.10;;;;;;5005651;28;43984;-72
2022/09/02 01:42:54;;;;;;;1.80;1.80;;;24.30;61.00;;;;;;4995989;28;43487;-72
2022/09/02 01:45:23;;;;;;;1.67;1.67;;;24.20;61.90;;;;;;5006442;28;44153;-71
2022/09/02 01:47:51;;;;;;;1.53;1.53;;;24.20;61.50;;;;;;5005293;28;45710;-72
2022/09/02 01:50:19;;;;;;;1.70;1.70;;;24.30;61.30;;;;;;5005251;28;45060;-72
2022/09/02 01:52:47;;;;;;;1.80;1.80;;;24.40;61.00;;;;;;5007303;28;44042;-72
2022/09/02 01:55:15;;;;;;;1.83;1.83;;;24.50;60.70;;;;;;5007336;28;43810;-72
2022/09/02 01:57:46;;;;;;;1.90;1.80;;;24.50;60.60;;;;;;4999982;28;45662;-70
2022/09/02 02:00:15;;;;;;;1.80;1.80;;;24.50;60.50;;;;;;5004415;28;44744;-72
2022/09/02 02:02:44;;;;;;;1.80;1.80;;;24.40;60.60;;;;;;5005776;28;43427;-72
2022/09/02 02:05:12;;;;;;;1.80;1.80;;;24.40;61.00;;;;;;5005621;28;43370;-72
2022/09/02 02:07:41;;;;;;;1.80;1.80;;;24.30;61.00;;;;;;5006896;28;43756;-71
2022/09/02 02:10:10;;;;;;;1.70;1.70;;;24.30;60.90;;;;;;4989548;28;43601;-72
2022/09/02 02:12:39;;;;;;;1.70;1.70;;;24.30;61.00;;;;;;5003124;28;43447;-73
2022/09/02 02:15:10;;;;;;;1.70;1.70;;;24.20;61.40;;;;;;4998194;28;43365;-73
2022/09/02 02:17:39;;;;;;;1.63;1.63;;;24.20;61.40;;;;;;5000982;28;44249;-71
2022/09/02 02:20:08;;;;;;;1.70;1.70;;;24.20;61.30;;;;;;5005357;28;43997;-72
2022/09/02 02:22:37;;;;;;;1.60;1.60;;;24.20;61.30;;;;;;5005252;28;43533;-70
2022/09/02 02:25:06;;;;;;;1.80;1.80;;;24.10;61.70;;;;;;5005020;28;43487;-71
2022/09/02 02:27:34;;;;;;;1.50;1.50;;;24.10;61.60;;;;;;4988046;28;45398;-71
2022/09/02 02:30:07;;;;;;;1.50;1.50;;;24.30;61.50;;;;;;4988124;28;44704;-70
2022/09/02 02:32:37;;;;;;;1.53;1.53;;;24.40;61.00;;;;;;4989277;28;43518;-72
2022/09/02 02:35:06;;;;;;;1.60;1.60;;;24.50;60.50;;;;;;4988394;28;43619;-72
2022/09/02 02:37:35;;;;;;;1.57;1.57;;;24.60;60.60;;;;;;5004974;28;44745;-71
2022/09/02 02:40:04;;;;;;;1.50;1.50;;;24.50;60.40;;;;;;5006349;28;44312;-74
2022/09/02 02:42:32;;;;;;;1.60;1.60;;;24.50;60.50;;;;;;4988640;28;43484;-72
2022/09/02 02:45:00;;;;;;;1.67;1.67;;;24.40;61.00;;;;;;5006590;28;43433;-72
2022/09/02 02:47:28;;;;;;;1.50;1.50;;;24.40;61.00;;;;;;5004629;28;45460;-72
2022/09/02 02:49:58;;;;;;;1.60;1.60;;;24.30;60.90;;;;;;5005842;28;43416;-73
2022/09/02 02:52:26;;;;;;;1.50;1.50;;;24.30;60.90;;;;;;4997516;28;43474;-71
2022/09/02 02:54:54;;;;;;;1.60;1.60;;;24.20;61.30;;;;;;5004771;28;43574;-73
2022/09/02 02:57:22;;;;;;;1.73;1.60;;;24.20;61.40;;;;;;5006021;28;43595;-72
2022/09/02 02:59:51;;;;;;;1.53;1.53;;;24.20;61.40;;;;;;4981579;28;44956;-71
2022/09/02 03:02:19;;;;;;;1.80;1.80;;;24.20;61.30;;;;;;4988100;28;43955;-72
2022/09/02 03:04:49;;;;;;;1.57;1.57;;;24.10;61.60;;;;;;4985280;28;43455;-72
2022/09/02 03:07:19;;;;;;;1.70;1.70;;;24.10;61.60;;;;;;4999659;28;43837;-71
2022/09/02 03:09:47;;;;;;;1.40;1.40;;;24.10;61.60;;;;;;4987804;28;45008;-71
2022/09/02 03:12:16;;;;;;;1.70;1.70;;;24.10;61.40;;;;;;4987724;28;43410;-71
2022/09/02 03:14:45;;;;;;;1.70;1.70;;;24.10;61.60;;;;;;4988352;28;43592;-71
2022/09/02 03:17:14;;;;;;;1.70;1.70;;;24.10;61.70;;;;;;5004986;28;43625;-72
2022/09/02 03:19:42;;;;;;;1.80;1.80;;;24.10;61.50;;;;;;5005652;28;43410;-72
2022/09/02 03:22:10;;;;;;;1.70;1.70;;;24.30;61.30;;;;;;4987771;28;43906;-72
2022/09/02 03:24:40;;;;;;;1.67;1.67;;;24.40;60.70;;;;;;4988458;28;43748;-73
2022/09/02 03:27:08;;;;;;;1.53;1.53;;;24.50;60.40;;;;;;5003856;28;45031;-71
2022/09/02 03:29:36;;;;;;;1.80;1.80;;;24.50;61.00;;;;;;4999144;28;44343;-71
2022/09/02 03:32:05;;;;;;;1.67;1.67;;;24.50;60.30;;;;;;5007722;28;43435;-72
2022/09/02 03:34:35;;;;;;;1.60;1.60;;;24.40;60.40;;;;;;5008040;28;43516;-73
2022/09/02 03:37:03;;;;;;;1.50;1.50;;;24.40;60.60;;;;;;4995170;28;43834;-70
2022/09/02 03:39:31;;;;;;;1.53;1.53;;;24.40;60.80;;;;;;5009255;28;43384;-72
2022/09/02 03:42:00;;;;;;;1.60;1.60;;;24.30;60.80;;;;;;5007679;28;43368;-73
2022/09/02 03:44:33;;;;;;;1.60;1.60;;;24.30;60.90;;;;;;5008162;28;43781;-71
2022/09/02 03:47:01;;;;;;;1.60;1.60;;;24.20;61.10;;;;;;5007576;28;45972;-71
2022/09/02 03:49:29;;;;;;;1.60;1.60;;;24.20;61.10;;;;;;5007026;28;44772;-72
2022/09/02 03:51:57;;;;;;;1.80;1.80;;;24.20;61.10;;;;;;5009018;28;43401;-73
2022/09/02 03:54:25;;;;;;;2.30;2.10;;;24.20;61.10;;;;;;5007476;28;43433;-72
2022/09/02 03:56:56;;;;;;;3.40;2.53;;;24.10;61.50;;;;;;5006377;28;44274;-72
2022/09/02 03:59:26;;;;;;;6.63;2.93;;;24.20;61.40;;;;;;5005027;28;43466;-71
2022/09/02 04:01:54;;;;;;;6.43;3.30;;;24.30;61.20;;;;;;5007579;28;43384;-72
2022/09/02 04:04:23;;;;;;;4.93;3.30;;;24.40;60.70;;;;;;5007853;28;43485;-72
2022/09/02 04:06:52;;;;;;;5.53;3.07;;;24.50;60.60;;;;;;5015548;28;45746;-72
2022/09/02 04:09:21;;;;;;;7.87;3.40;;;24.50;60.50;;;;;;5006647;28;44483;-71
2022/09/02 04:11:49;;;;;;;4.90;3.63;;;24.40;60.40;;;;;;5007283;28;43457;-72
2022/09/02 04:14:17;;;;;;;8.03;3.67;;;24.40;60.50;;;;;;5007017;28;43575;-72
2022/09/02 04:21:19;;;;;;;3.97;3.20;;;24.30;60.50;;;;;;5001374;28;43450;-72
2022/09/02 04:23:51;;;;;;;5.57;3.40;;;24.30;60.90;;;;;;5004020;28;43981;-72
2022/09/02 04:26:20;;;;;;;5.43;3.90;;;24.20;61.00;;;;;;4991408;28;43429;-72
2022/09/02 04:28:53;;;;;;;6.57;4.10;;;24.20;61.00;;;;;;5003075;28;43914;-72
2022/09/02 04:31:24;;;;;;;5.37;3.50;;;24.20;61.00;;;;;;5003060;28;44442;-72
2022/09/02 04:33:53;;;;;;;7.93;3.80;;;24.10;61.00;;;;;;5008231;28;43377;-71
2022/09/02 04:36:22;;;;;;;5.80;3.90;;;24.10;61.20;;;;;;4990246;28;43481;-70
2022/09/02 04:38:55;;;;;;;5.57;3.47;;;24.20;61.10;;;;;;4989838;28;45652;-70
2022/09/02 04:41:29;;;;;;;6.27;3.93;;;24.20;60.80;;;;;;4989414;28;44913;-71
2022/09/02 04:44:01;;;;;;;7.83;4.20;;;24.40;60.50;;;;;;4989750;28;43426;-72
2022/09/02 04:46:32;;;;;;;4.47;3.47;;;24.50;60.10;;;;;;4981400;28;43628;-73
2022/09/02 04:49:04;;;;;;;4.43;3.40;;;24.50;60.00;;;;;;4977460;28;45512;-71
2022/09/02 04:51:33;;;;;;;6.07;3.63;;;24.50;60.20;;;;;;4987634;28;44530;-71
2022/09/02 04:54:06;;;;;;;5.73;3.57;;;24.40;60.30;;;;;;5002106;28;43421;-75
2022/09/02 04:56:37;;;;;;;5.07;3.57;;;24.30;60.50;;;;;;4982454;28;43799;-71
2022/09/02 04:59:05;;;;;;;5.37;3.53;;;24.30;60.50;;;;;;4973220;28;45741;-74
2022/09/02 05:01:36;;;;;;;4.10;3.70;;;24.30;60.70;;;;;;4981481;28;44044;-72
2022/09/02 05:04:10;;;;;;;4.40;3.80;;;24.20;60.80;;;;;;4997554;28;43971;-72
2022/09/02 05:06:43;;;;;;;6.10;3.60;;;24.20;61.60;;;;;;4990754;28;43971;-72
2022/09/02 05:09:17;;;;;;;3.30;3.10;;;24.20;60.80;;;;;;4989754;28;46009;-72
2022/09/02 05:11:56;;;;;;;4.00;3.53;;;24.10;60.90;;;;;;4989876;28;43401;-71
2022/09/02 05:14:26;;;;;;;4.40;3.10;;;24.10;61.10;;;;;;4987333;28;43473;-71
2022/09/02 05:16:59;;;;;;;4.07;3.23;;;24.10;61.20;;;;;;4982012;28;43406;-73
2022/09/02 05:19:34;;;;;;;3.87;3.37;;;24.10;61.20;;;;;;4971255;28;44836;-73
2022/09/02 05:22:03;;;;;;;5.30;3.30;;;24.10;61.20;;;;;;4985258;28;43947;-72
2022/09/02 05:24:37;;;;;;;4.53;2.83;;;24.10;61.30;;;;;;4993691;28;43459;-73
2022/09/02 05:27:08;;;;;;;4.17;3.67;;;24.00;61.10;;;;;;4990458;28;43440;-73
2022/09/02 05:29:36;;;;;;;4.57;3.33;;;24.10;60.70;;;;;;4989426;28;45314;-72
2022/09/02 05:32:06;;;;;;;3.93;3.40;;;24.20;60.30;;;;;;5006137;28;43735;-71
2022/09/02 05:34:37;;;;;;;3.30;3.00;;;24.30;59.80;;;;;;5008384;28;43416;-71
2022/09/02 05:37:05;;;;;;;4.43;3.10;;;24.40;59.40;;;;;;4990584;28;43452;-72
2022/09/02 05:39:36;;;;;;;3.90;3.03;;;24.40;59.30;;;;;;4989398;28;45696;-73
2022/09/02 05:42:06;;;;;;;3.10;2.90;;;24.40;59.50;;;;;;4989338;28;44613;-70
2022/09/02 05:44:35;;;;;;;3.23;3.00;;;24.40;59.60;;;;;;4990296;28;43517;-72
2022/09/02 05:47:05;;;;;;;5.33;3.37;;;24.30;59.50;;;;;;4989907;28;43593;-73
2022/09/02 05:49:33;;;;;;;3.27;2.97;;;24.30;59.60;;;;;;5006616;28;45990;-73
2022/09/02 05:52:10;;;;;;;2.77;2.60;;;24.20;60.00;;;;;;4989450;28;44794;-71
2022/09/02 05:54:49;;;;;;;3.47;3.00;;;24.20;60.00;;;;;;5005271;28;43450;-72
2022/09/02 05:57:19;;;;;;;3.17;2.93;;;24.10;59.80;;;;;;4989963;28;43572;-72
2022/09/02 05:59:56;;;;;;;2.63;2.47;;;24.10;60.00;;;;;;5005933;28;43834;-71
2022/09/02 06:02:40;;;;;;;2.77;2.57;;;24.10;60.30;;;;;;5004410;28;43522;-72
2022/09/02 06:05:11;;;;;;;3.30;3.00;;;24.00;60.10;;;;;;5005969;28;43769;-72
2022/09/02 06:07:46;;;;;;;2.70;2.60;;;24.00;59.90;;;;;;5006745;28;43616;-72
2022/09/02 06:10:16;;;;;;;2.50;2.40;;;24.00;60.10;;;;;;5007198;28;43614;-70
2022/09/02 06:12:44;;;;;;;3.13;3.00;;;24.00;60.30;;;;;;5006241;28;45015;-70
2022/09/02 06:15:13;;;;;;;2.97;2.77;;;24.00;60.20;;;;;;4989059;28;43517;-71
2022/09/02 06:17:42;;;;;;;2.87;2.67;;;24.00;59.90;;;;;;4990164;28;43887;-71
2022/09/02 06:20:11;;;;;;;2.60;2.50;;;24.00;59.70;;;;;;4988880;28;45786;-72
2022/09/02 06:22:42;;;;;;;2.50;2.40;;;24.10;59.40;;;;;;4999829;28;44109;-72
2022/09/02 06:25:11;;;;;;;3.00;2.70;;;24.30;59.10;;;;;;4988832;28;43418;-71
2022/09/02 06:27:42;;;;;;;3.80;2.90;;;24.40;58.90;;;;;;5006129;28;43517;-72
2022/09/02 06:30:11;;;;;;;3.07;2.87;;;24.40;58.80;;;;;;4988688;28;44043;-71
2022/09/02 06:32:40;;;;;;;2.57;2.47;;;24.30;59.20;;;;;;4988745;28;44093;-71
2022/09/02 06:35:10;;;;;;;2.90;2.70;;;24.30;59.10;;;;;;5005392;28;43800;-72
2022/09/02 06:37:40;;;;;;;2.40;2.30;;;24.20;59.10;;;;;;5007494;28;43398;-71
2022/09/02 06:40:12;;;;;;;2.50;2.40;;;24.20;59.40;;;;;;4989119;28;46093;-71
2022/09/02 06:42:43;;;;;;;2.50;2.40;;;24.10;59.60;;;;;;4989013;28;44455;-72
2022/09/02 06:45:25;;;;;;;2.50;2.30;;;24.10;59.60;;;;;;4989143;28;43396;-72
2022/09/02 06:47:55;;;;;;;2.70;2.50;;;24.00;59.40;;;;;;4989500;28;43506;-73
2022/09/02 06:50:23;;;;;;;2.40;2.30;;;24.00;59.60;;;;;;5005125;28;45737;-72
2022/09/02 06:52:55;;;;;;;2.60;2.47;;;24.00;59.90;;;;;;5005335;28;43964;-73
2022/09/02 06:55:23;;;;;;;2.67;2.57;;;24.00;59.80;;;;;;4988842;28;43427;-71
2022/09/02 06:57:53;;;;;;;2.47;2.27;;;24.00;59.50;;;;;;5005538;28;43528;-72
2022/09/02 07:00:22;;;;;;;2.60;2.50;;;24.00;59.40;;;;;;5004655;28;45940;-72
2022/09/02 07:05:08;;;;;;;2.70;2.50;;;24.10;59.10;;;;;;4997301;28;44723;-71
2022/09/02 07:05:37;;;;;;;2.20;2.10;;;24.30;58.80;;;;;;4987955;28;43467;-71
2022/09/02 07:08:06;;;;;;;2.30;2.20;;;24.30;58.70;;;;;;5007020;28;43373;-72
2022/09/02 07:10:37;;;;;;;2.10;2.00;;;24.30;58.80;;;;;;5005165;28;46133;-73
2022/09/02 07:13:09;;;;;;;2.60;2.40;;;24.20;59.20;;;;;;5004753;28;43408;-71
2022/09/02 07:15:37;;;;;;;2.70;2.60;;;24.10;59.00;;;;;;5005145;28;43365;-71
2022/09/02 07:18:06;;;;;;;2.60;2.40;;;24.10;59.00;;;;;;4988954;28;43541;-72
2022/09/02 07:20:36;;;;;;;2.20;2.10;;;24.10;59.20;;;;;;4988572;28;45995;-72
2022/09/02 07:23:05;;;;;;;2.43;2.33;;;24.10;59.50;;;;;;5005067;28;43373;-73
2022/09/02 07:25:38;;;;;;;2.43;2.23;;;24.00;59.50;;;;;;5004168;28;43393;-71
2022/09/02 07:28:10;;;;;;;2.30;2.20;;;24.00;59.30;;;;;;4988980;28;43421;-72
2022/09/02 07:30:40;;;;;;;2.27;2.17;;;24.00;59.20;;;;;;4988414;28;45818;-71
2022/09/02 07:33:13;;;;;;;2.37;2.27;;;24.10;58.90;;;;;;4988200;28;44611;-71
2022/09/02 07:35:43;;;;;;;2.30;2.20;;;24.20;58.60;;;;;;5005092;28;43281;-71
2022/09/02 07:38:11;;;;;;;2.40;2.30;;;24.30;58.50;;;;;;4988424;28;44209;-71
2022/09/02 07:40:40;;;;;;;2.40;2.30;;;24.30;58.70;;;;;;5006520;28;43735;-71
2022/09/02 07:43:10;;;;;;;2.03;2.03;;;24.20;59.00;;;;;;4987977;28;43435;-72
2022/09/02 07:45:42;;;;;;;3.10;2.20;;;24.10;58.90;;;;;;4982204;28;43485;-72
2022/09/02 07:48:11;;;;;;;2.50;2.40;;;24.10;58.90;;;;;;4982536;28;43593;-72
2022/09/02 07:50:39;;;;;;;1.90;1.90;;;24.10;59.20;;;;;;5004448;28;44864;-71
2022/09/02 07:53:12;;;;;;;2.10;2.00;;;24.00;59.40;;;;;;4988126;28;45062;-72
2022/09/02 07:55:41;;;;;;;1.90;1.90;;;24.00;60.00;;;;;;4988264;28;43940;-72
2022/09/02 07:58:11;;;;;;;2.20;2.10;;;24.00;59.30;;;;;;5006291;28;43379;-72
2022/09/02 08:00:43;;;;;;;2.00;1.90;;;24.00;59.10;;;;;;4988004;28;45382;-71
2022/09/02 08:03:12;;;;;;;2.00;1.90;;;24.00;58.70;;;;;;5004381;28;43411;-73
2022/09/02 08:05:45;;;;;;;2.03;1.93;;;24.10;59.00;;;;;;4988096;28;43383;-71
2022/09/02 08:08:14;;;;;;;2.20;2.10;;;24.00;59.10;;;;;;5006198;28;43420;-73
2022/09/02 08:10:42;;;;;;;2.40;2.30;;;24.00;59.00;;;;;;5005827;28;44104;-72
2022/09/02 08:13:11;;;;;;;1.97;1.97;;;24.00;59.00;;;;;;5004199;28;44726;-72
2022/09/02 08:15:39;;;;;;;1.97;1.97;;;24.00;59.20;;;;;;5005985;28;43496;-72
2022/09/02 08:18:07;;;;;;;2.03;2.03;;;24.00;59.40;;;;;;5008492;28;43441;-72
2022/09/02 08:20:39;;;;;;;2.27;2.17;;;23.90;59.20;;;;;;5009167;28;44014;-72
2022/09/02 08:23:07;;;;;;;2.33;2.23;;;24.00;59.20;;;;;;5008977;28;43422;-73
2022/09/02 08:25:45;;;;;;;1.90;1.80;;;23.90;59.30;;;;;;4995136;28;44009;-71
2022/09/02 08:28:15;;;;;;;2.07;1.97;;;23.90;59.40;;;;;;4989803;28;43382;-71
2022/09/02 08:30:43;;;;;;;2.00;1.90;;;23.90;60.10;;;;;;4989383;28;43724;-73
2022/09/02 08:33:11;;;;;;;1.87;1.87;;;23.90;59.30;;;;;;4988984;28;43394;-72
2022/09/02 08:35:39;;;;;;;2.07;2.00;;;23.90;59.20;;;;;;4989263;28;43446;-72
2022/09/02 08:38:07;;;;;;;2.80;1.90;;;24.00;59.00;;;;;;4989170;28;43294;-71
2022/09/02 08:40:36;;;;;;;1.70;1.70;;;24.10;58.60;;;;;;4989396;28;45335;-71
2022/09/02 08:43:07;;;;;;;1.80;1.80;;;24.20;58.40;;;;;;4988931;28;43481;-72
2022/09/02 08:45:37;;;;;;;2.00;2.00;;;24.20;58.40;;;;;;4989232;28;43315;-73
2022/09/02 08:48:07;;;;;;;1.80;1.80;;;24.20;58.80;;;;;;4971574;28;43476;-71
2022/09/02 08:50:34;;;;;;;2.03;1.90;;;24.10;58.70;;;;;;4982368;28;43610;-70
2022/09/02 08:53:07;;;;;;;2.10;1.90;;;24.10;58.80;;;;;;4982425;28;43495;-72
2022/09/02 08:55:38;;;;;;;1.80;1.80;;;24.00;58.90;;;;;;4983299;28;43418;-71
2022/09/02 08:58:06;;;;;;;1.70;1.70;;;24.00;59.10;;;;;;4989021;28;43411;-71
2022/09/02 09:00:38;;;;;;;1.60;1.60;;;24.00;59.20;;;;;;4971219;28;45156;-72
2022/09/02 09:03:15;;;;;;;1.70;1.60;;;23.90;59.10;;;;;;4988699;28;43341;-72
2022/09/02 09:05:45;;;;;;;1.73;1.73;;;24.00;59.20;;;;;;4988919;28;43343;-72
2022/09/02 09:08:17;;;;;;;1.67;1.67;;;23.90;59.30;;;;;;4971041;28;43470;-71
2022/09/02 09:10:55;;;;;;;1.70;1.70;;;23.90;59.40;;;;;;4988725;28;45125;-71
2022/09/02 09:13:50;;;;;;;1.90;1.90;;;23.90;59.20;;;;;;4972591;28;44913;-72
2022/09/02 09:16:26;;;;;;;1.90;1.80;;;23.90;58.90;;;;;;4970571;28;43489;-71
2022/09/02 09:19:01;;;;;;;1.70;1.70;;;24.00;58.60;;;;;;4989089;28;43466;-73
2022/09/02 09:21:32;;;;;;;1.60;1.60;;;24.20;58.30;;;;;;4987328;28;45712;-72
2022/09/02 09:24:01;;;;;;;1.47;1.47;;;24.20;58.10;;;;;;4970390;28;44616;-73
2022/09/02 09:26:29;;;;;;;1.60;1.60;;;24.20;58.80;;;;;;4988275;28;43460;-73
2022/09/02 09:28:58;;;;;;;1.97;1.87;;;24.10;58.40;;;;;;4971018;28;43987;-75
2022/09/02 09:31:29;;;;;;;1.40;1.40;;;24.10;58.40;;;;;;4970509;28;45945;-72
2022/09/02 09:33:58;;;;;;;1.50;1.50;;;24.10;58.40;;;;;;4988019;28;43292;-72
2022/09/02 09:36:50;;;;;;;1.57;1.53;;;24.00;58.60;;;;;;4988359;28;43482;-72
2022/09/02 09:39:19;;;;;;;1.50;1.50;;;24.00;58.80;;;;;;4983683;28;43901;-72
2022/09/02 09:41:48;;;;;;;1.60;1.60;;;23.90;58.50;;;;;;4987981;28;44685;-72
2022/09/02 09:44:38;;;;;;;1.60;1.60;;;23.90;58.50;;;;;;4970310;28;44727;-71
2022/09/02 09:47:09;;;;;;;1.60;1.60;;;23.90;58.80;;;;;;4999205;28;44264;-72
2022/09/02 09:49:44;;;;;;;1.50;1.50;;;23.90;58.80;;;;;;4988514;28;43903;-73
2022/09/02 09:52:12;;;;;;;1.37;1.37;;;23.90;58.60;;;;;;4987494;28;44819;-73
2022/09/02 09:54:40;;;;;;;1.50;1.50;;;23.90;58.40;;;;;;4981622;28;43343;-73
2022/09/02 09:57:16;;;;;;;1.70;1.70;;;24.00;58.10;;;;;;4986216;28;43413;-72
2022/09/02 09:59:48;;;;;;;1.60;1.60;;;24.10;57.80;;;;;;4988389;28;43931;-74
2022/09/02 10:02:22;;;;;;;1.33;1.33;;;24.20;57.50;;;;;;4987450;28;43773;-71
2022/09/02 10:04:51;;;;;;;1.40;1.40;;;24.20;57.80;;;;;;4988040;28;43374;-73
2022/09/02 10:07:35;;;;;;;1.50;1.50;;;24.10;58.00;;;;;;4988091;28;43967;-71
2022/09/02 10:10:16;;;;;;;1.40;1.40;;;24.10;58.00;;;;;;4988562;28;43454;-72
2022/09/02 10:12:44;;;;;;;1.33;1.33;;;24.00;57.80;;;;;;4969745;28;44133;-72
2022/09/02 10:15:12;;;;;;;1.60;1.60;;;24.00;58.60;;;;;;4987309;28;43427;-72
2022/09/02 10:17:47;;;;;;;1.27;1.27;;;24.00;58.60;;;;;;4987787;28;43406;-71
2022/09/02 10:20:17;;;;;;;1.50;1.50;;;24.00;58.60;;;;;;4980441;28;43645;-70
2022/09/02 10:23:09;;;;;;;1.63;1.53;;;23.90;58.20;;;;;;4969755;28;45996;-72
2022/09/02 10:25:43;;;;;;;1.20;1.20;;;24.00;58.00;;;;;;4974862;28;44951;-72
2022/09/02 10:28:18;;;;;;;1.23;1.23;;;24.00;57.60;;;;;;4988692;28;43516;-71
2022/09/02 10:30:50;;;;;;;1.40;1.40;;;24.10;57.20;;;;;;4983431;28;43558;-71
2022/09/02 10:33:24;;;;;;;1.33;1.33;;;24.20;57.40;;;;;;5005071;28;45962;-71
2022/09/02 10:35:56;;;;;;;1.10;1.10;;;24.20;58.10;;;;;;5006939;28;43362;-71
2022/09/02 10:38:32;;;;;;;1.43;1.43;;;24.10;58.10;;;;;;4999369;28;43322;-71
2022/09/02 10:41:05;;;;;;;1.50;1.50;;;24.10;57.80;;;;;;4987605;28;43442;-71
2022/09/02 10:43:44;;;;;;;1.30;1.30;;;24.00;57.90;;;;;;4987643;28;43929;-71
2022/09/02 10:46:16;;;;;;;1.20;1.20;;;24.00;58.40;;;;;;4987351;28;43453;-72
2022/09/02 10:48:52;;;;;;;1.47;1.27;;;24.00;58.60;;;;;;5005239;28;43393;-71
2022/09/02 10:51:23;;;;;;;1.30;1.30;;;24.00;58.10;;;;;;4970281;28;43681;-72
2022/09/02 10:53:58;;;;;;;1.30;1.30;;;23.90;58.30;;;;;;5006829;28;43774;-73
2022/09/02 10:56:28;;;;;;;1.20;1.20;;;23.90;58.60;;;;;;4982036;28;43471;-71
2022/09/02 10:58:59;;;;;;;1.10;1.10;;;23.90;58.40;;;;;;4992478;28;43480;-73
2022/09/02 11:01:28;;;;;;;1.37;1.37;;;23.90;58.40;;;;;;4994201;28;43659;-71
2022/09/02 11:04:03;;;;;;;1.20;1.20;;;23.90;58.10;;;;;;5006049;28;43771;-73
2022/09/02 11:06:35;;;;;;;1.20;1.20;;;24.00;58.00;;;;;;4973996;28;44511;-72
2022/09/02 11:09:29;;;;;;;1.30;1.30;;;24.10;57.80;;;;;;4969477;28;43326;-71
2022/09/02 11:11:59;;;;;;;1.30;1.20;;;24.20;57.50;;;;;;4981167;28;43880;-74
2022/09/02 11:14:29;;;;;;;1.40;1.40;;;24.20;57.60;;;;;;4963522;28;45625;-71
2022/09/02 11:17:02;;;;;;;1.20;1.20;;;24.20;58.20;;;;;;4988038;28;45130;-71
2022/09/02 11:19:35;;;;;;;1.27;1.17;;;24.20;58.30;;;;;;4988479;28;43459;-72
2022/09/02 11:22:07;;;;;;;1.20;1.20;;;24.10;58.10;;;;;;4991981;28;43378;-72
2022/09/02 11:24:36;;;;;;;1.20;1.20;;;24.10;58.50;;;;;;4990518;28;44068;-73
2022/09/02 11:27:09;;;;;;;1.30;1.30;;;24.00;58.70;;;;;;4988129;28;45031;-73
2022/09/02 11:30:00;;;;;;;1.33;1.23;;;24.00;58.60;;;;;;4988373;28;43380;-72
2022/09/02 11:32:31;;;;;;;1.20;1.20;;;24.00;58.60;;;;;;4988774;28;43420;-71
2022/09/02 11:35:05;;;;;;;1.27;1.27;;;24.00;58.90;;;;;;4999808;28;43952;-71
2022/09/02 11:37:38;;;;;;;1.30;1.30;;;24.00;58.90;;;;;;5000978;28;43399;-71
2022/09/02 11:40:08;;;;;;;1.30;1.30;;;23.90;58.90;;;;;;4999327;28;43413;-73
2022/09/02 11:43:16;;;;;;;2.27;1.63;;;23.90;58.90;;;;;;5005100;28;43561;-74
2022/09/02 11:46:18;;;;;;;1.23;1.23;;;23.90;58.80;;;;;;5006197;28;43966;-70
2022/09/02 11:49:14;;;;;;;1.20;1.20;;;24.00;58.60;;;;;;5006093;28;43477;-72
2022/09/02 11:51:57;;;;;;;1.30;1.30;;;24.20;58.30;;;;;;5006922;28;43314;-72
2022/09/02 11:54:29;;;;;;;1.30;1.30;;;24.20;58.00;;;;;;5008715;28;43470;-72
2022/09/02 11:56:58;;;;;;;1.13;1.13;;;24.20;58.50;;;;;;4991607;28;45842;-74
2022/09/02 12:00:01;;;;;;;1.20;1.13;;;24.20;58.50;;;;;;5009513;28;43750;-71
2022/09/02 12:02:42;;;;;;;1.40;1.40;;;24.10;58.50;;;;;;5006777;28;43425;-71
2022/09/02 12:05:44;;;;;;;1.10;1.10;;;24.10;58.90;;;;;;5007888;28;43448;-73
2022/09/02 12:08:33;;;;;;;1.30;1.30;;;24.00;58.90;;;;;;5005303;28;44008;-71
2022/09/02 12:11:03;;;;;;;1.30;1.30;;;24.00;59.00;;;;;;5008940;28;43534;-71
2022/09/02 12:13:33;;;;;;;1.40;1.40;;;24.00;59.10;;;;;;5009808;28;43366;-72
2022/09/02 12:16:34;;;;;;;1.27;1.27;;;23.90;59.20;;;;;;5009701;28;43396;-72
2022/09/02 12:19:26;;;;;;;1.13;1.13;;;23.90;59.10;;;;;;5007026;28;44075;-71
2022/09/02 12:22:32;;;;;;;1.10;1.10;;;23.90;59.30;;;;;;5007683;28;44711;-72
2022/09/02 12:25:01;;;;;;;1.30;1.30;;;23.90;59.30;;;;;;4947713;28;43374;-73
2022/09/02 12:27:32;;;;;;;1.30;1.30;;;24.00;59.80;;;;;;4948831;28;43437;-72
2022/09/02 12:30:00;;;;;;;1.20;1.20;;;24.00;58.90;;;;;;4968691;28;43886;-72
2022/09/02 12:33:03;;;;;;;1.20;1.20;;;24.10;58.60;;;;;;4989107;28;43753;-72
2022/09/02 12:35:50;;;;;;;1.07;1.07;;;24.10;58.90;;;;;;4989229;28;43342;-72
2022/09/02 12:38:32;;;;;;;1.20;1.20;;;24.10;58.80;;;;;;4987336;28;43482;-71
2022/09/02 12:41:26;;;;;;;1.10;1.10;;;24.10;59.00;;;;;;4989184;28;44341;-72
2022/09/02 12:44:02;;;;;;;1.30;1.30;;;24.00;59.10;;;;;;4971555;28;44744;-71
2022/09/02 12:46:40;;;;;;;1.50;1.50;;;24.00;59.30;;;;;;4982702;28;43397;-72
2022/09/02 12:49:11;;;;;;;1.30;1.30;;;24.00;59.80;;;;;;4983846;28;43946;-71
2022/09/02 12:51:52;;;;;;;1.10;1.10;;;24.00;59.30;;;;;;4989186;28;43781;-70
2022/09/02 12:54:24;;;;;;;1.30;1.30;;;23.90;59.40;;;;;;4988688;28;43352;-72
2022/09/02 12:56:54;;;;;;;1.50;1.50;;;24.00;59.20;;;;;;4989151;28;43618;-71
2022/09/02 12:59:27;;;;;;;1.00;1.00;;;24.10;58.90;;;;;;4989117;28;43383;-72
2022/09/02 13:02:01;;;;;;;1.27;1.27;;;24.20;58.70;;;;;;4987203;28;45623;-71
2022/09/02 13:04:31;;;;;;;1.10;1.10;;;24.20;58.70;;;;;;4988406;28;43421;-71
2022/09/02 13:07:20;;;;;;;1.10;1.10;;;24.20;59.00;;;;;;4970565;28;43401;-73
2022/09/02 13:10:11;;;;;;;1.20;1.20;;;24.10;58.90;;;;;;4967442;28;43936;-72
2022/09/02 13:13:09;;;;;;;1.10;1.10;;;24.10;59.00;;;;;;4961463;28;45785;-72
2022/09/02 13:15:47;;;;;;;1.10;1.10;;;24.00;59.10;;;;;;4952392;28;43441;-71
2022/09/02 13:18:39;;;;;;;1.23;1.23;;;24.00;59.10;;;;;;4988241;28;43884;-72